createdAt,value
2022-12-12T00:00:43.268Z,18.85
2022-12-12T00:03:10.142Z,17.63
2022-12-12T00:05:37.330Z,18.40
2022-12-12T00:08:04.264Z,18.07
2022-12-12T00:10:31.214Z,17.58
2022-12-12T00:12:57.926Z,18.73
2022-12-12T00:15:24.764Z,19.77
2022-12-12T00:17:51.476Z,18.77
2022-12-12T00:20:18.197Z,18.95
2022-12-12T00:22:44.958Z,20.58
2022-12-12T00:25:12.346Z,20.48
2022-12-12T00:27:39.529Z,20.27
2022-12-12T00:30:06.990Z,18.33
2022-12-12T00:32:34.169Z,19.40
2022-12-12T00:35:00.814Z,18.67
2022-12-12T00:37:27.527Z,19.02
2022-12-12T00:39:54.235Z,19.27
2022-12-12T00:42:20.915Z,21.17
2022-12-12T00:44:47.545Z,20.60
2022-12-12T00:47:14.292Z,20.13
2022-12-12T00:49:40.939Z,19.73
2022-12-12T00:52:07.603Z,21.87
2022-12-12T00:54:34.316Z,19.23
2022-12-12T00:57:00.984Z,22.30
2022-12-12T00:59:27.712Z,20.57
2022-12-12T01:01:54.495Z,19.47
2022-12-12T01:04:21.641Z,20.03
2022-12-12T01:06:48.339Z,22.23
2022-12-12T01:09:15.115Z,21.40
2022-12-12T01:11:41.790Z,21.10
2022-12-12T01:14:08.607Z,20.40
2022-12-12T01:16:35.381Z,18.97
2022-12-12T01:19:02.224Z,21.47
2022-12-12T01:21:28.872Z,21.08
2022-12-12T01:23:55.556Z,20.30
2022-12-12T01:26:24.152Z,19.65
2022-12-12T01:28:51.480Z,20.83
2022-12-12T01:31:18.543Z,20.15
2022-12-12T01:33:45.961Z,20.88
2022-12-12T01:36:19.423Z,20.05
2022-12-12T01:38:47.499Z,21.77
2022-12-12T01:41:15.093Z,20.30
2022-12-12T01:43:42.373Z,19.40
2022-12-12T01:46:40.634Z,19.80
2022-12-12T01:49:16.291Z,18.90
2022-12-12T01:51:43.995Z,19.13
2022-12-12T01:54:21.954Z,19.85
2022-12-12T01:56:50.847Z,18.57
2022-12-12T01:59:20.961Z,18.27
2022-12-12T02:01:48.219Z,18.73
2022-12-12T02:04:17.100Z,18.10
2022-12-12T02:06:44.850Z,18.10
2022-12-12T02:09:13.833Z,18.00
2022-12-12T02:11:49.635Z,18.00
2022-12-12T02:14:22.447Z,17.67
2022-12-12T02:17:02.132Z,18.47
2022-12-12T02:19:53.439Z,18.23
2022-12-12T02:22:40.820Z,18.05
2022-12-12T02:25:30.336Z,17.05
2022-12-12T02:28:27.827Z,17.70
2022-12-12T02:31:16.676Z,17.52
2022-12-12T02:34:06.419Z,18.48
2022-12-12T02:36:33.207Z,18.60
2022-12-12T02:39:18.453Z,17.57
2022-12-12T02:41:52.416Z,17.52
2022-12-12T02:44:37.934Z,18.02
2022-12-12T02:47:30.052Z,18.08
2022-12-12T02:50:13.967Z,17.20
2022-12-12T02:52:43.396Z,18.13
2022-12-12T02:55:10.382Z,18.95
2022-12-12T02:57:37.154Z,19.35
2022-12-12T03:00:08.900Z,17.58
2022-12-12T03:03:17.011Z,17.27
2022-12-12T03:06:43.822Z,16.63
2022-12-12T03:09:37.023Z,19.00
2022-12-12T03:12:16.012Z,16.63
2022-12-12T03:14:48.542Z,17.42
2022-12-12T03:17:56.375Z,17.13
2022-12-12T03:20:34.985Z,17.05
2022-12-12T03:23:08.605Z,17.20
2022-12-12T03:26:09.684Z,17.77
2022-12-12T03:28:46.580Z,18.08
2022-12-12T03:31:15.207Z,16.55
2022-12-12T03:33:49.760Z,16.88
2022-12-12T03:36:21.496Z,18.10
2022-12-12T03:39:01.719Z,17.75
2022-12-12T03:41:35.702Z,17.60
2022-12-12T03:44:17.408Z,17.67
2022-12-12T03:47:08.622Z,18.73
2022-12-12T03:49:45.440Z,17.90
2022-12-12T03:52:28.794Z,19.35
2022-12-12T03:55:08.868Z,17.05
2022-12-12T03:57:45.175Z,18.83
2022-12-12T04:00:15.090Z,18.98
2022-12-12T04:02:56.443Z,19.05
2022-12-12T04:05:35.672Z,18.45
2022-12-12T04:08:12.845Z,20.33
2022-12-12T04:11:05.726Z,18.98
2022-12-12T04:13:39.515Z,18.83
2022-12-12T04:16:18.585Z,20.23
2022-12-12T04:19:11.176Z,19.38
2022-12-12T04:22:05.869Z,18.25
2022-12-12T04:27:12.019Z,17.60
2022-12-12T04:29:54.047Z,18.00
2022-12-12T04:32:27.459Z,18.20
2022-12-12T04:35:07.625Z,16.95
2022-12-12T04:37:39.853Z,17.95
2022-12-12T04:40:09.513Z,17.98
2022-12-12T04:42:44.496Z,16.15
2022-12-12T04:45:19.272Z,15.68
2022-12-12T04:47:50.072Z,17.10
2022-12-12T04:50:18.881Z,14.80
2022-12-12T04:52:48.058Z,16.42
2022-12-12T04:55:43.265Z,14.48
2022-12-12T04:58:11.169Z,15.77
2022-12-12T05:00:50.000Z,14.77
2022-12-12T05:03:25.378Z,14.70
2022-12-12T05:05:57.891Z,14.10
2022-12-12T05:08:29.194Z,13.50
2022-12-12T05:10:59.354Z,14.48
2022-12-12T05:13:40.984Z,13.43
2022-12-12T05:16:18.770Z,13.88
2022-12-12T05:18:46.288Z,15.93
2022-12-12T05:21:13.456Z,14.73
2022-12-12T05:23:40.171Z,14.65
2022-12-12T05:26:18.824Z,13.77
2022-12-12T05:28:45.769Z,13.18
2022-12-12T05:31:12.463Z,12.38
2022-12-12T05:33:39.329Z,13.15
2022-12-12T05:36:06.409Z,13.07
2022-12-12T05:38:33.179Z,13.05
2022-12-12T05:40:59.823Z,13.40
2022-12-12T05:43:26.618Z,13.27
2022-12-12T05:45:53.842Z,12.05
2022-12-12T05:48:24.299Z,11.52
2022-12-12T05:50:51.978Z,12.20
2022-12-12T05:53:19.434Z,12.98
2022-12-12T05:55:46.172Z,11.60
2022-12-12T05:58:12.884Z,12.15
2022-12-12T06:00:40.103Z,11.23
2022-12-12T06:03:06.952Z,11.02
2022-12-12T06:05:33.695Z,11.27
2022-12-12T06:08:00.403Z,10.98
2022-12-12T06:10:27.117Z,10.43
2022-12-12T06:12:53.778Z,10.50
2022-12-12T06:15:20.387Z,10.68
2022-12-12T06:17:47.604Z,9.93
2022-12-12T06:20:14.259Z,11.00
2022-12-12T06:22:42.348Z,10.35
2022-12-12T06:25:10.116Z,10.50
2022-12-12T06:27:37.060Z,10.35
2022-12-12T06:30:05.191Z,10.45
2022-12-12T06:32:31.851Z,9.38
2022-12-12T06:34:58.584Z,9.30
2022-12-12T06:37:25.305Z,10.07
2022-12-12T06:39:52.095Z,8.38
2022-12-12T06:42:18.732Z,8.75
2022-12-12T06:44:45.588Z,8.02
2022-12-12T06:47:12.303Z,8.43
2022-12-12T06:49:39.005Z,7.97
2022-12-12T06:52:05.693Z,7.80
2022-12-12T06:54:32.336Z,7.68
2022-12-12T06:56:59.075Z,6.97
2022-12-12T06:59:25.812Z,7.43
2022-12-12T07:01:56.033Z,7.63
2022-12-12T07:04:22.777Z,7.93
2022-12-12T07:06:49.424Z,7.25
2022-12-12T07:09:16.165Z,8.18
2022-12-12T07:11:42.825Z,7.55
2022-12-12T07:14:10.695Z,7.50
2022-12-12T07:16:37.622Z,6.68
2022-12-12T07:19:04.821Z,7.57
2022-12-12T07:21:31.571Z,6.65
2022-12-12T07:23:58.285Z,7.05
2022-12-12T07:26:25.540Z,6.63
2022-12-12T07:28:52.312Z,6.63
2022-12-12T07:31:21.961Z,6.70
2022-12-12T07:33:48.997Z,7.30
2022-12-12T07:36:16.628Z,7.07
2022-12-12T07:38:43.587Z,7.03
2022-12-12T07:41:13.605Z,6.82
2022-12-12T07:43:44.332Z,7.38
2022-12-12T07:46:14.676Z,6.72
2022-12-12T07:48:41.696Z,7.82
2022-12-12T07:51:08.346Z,6.70
2022-12-12T07:53:35.107Z,7.32
2022-12-12T07:56:06.126Z,7.95
2022-12-12T07:58:33.543Z,7.00
2022-12-12T08:01:00.293Z,6.80
2022-12-12T08:03:27.141Z,7.25
2022-12-12T08:05:53.863Z,6.13
2022-12-12T08:08:21.000Z,11.63
2022-12-12T08:10:47.755Z,7.90
2022-12-12T08:13:14.428Z,7.50
2022-12-12T08:15:43.299Z,7.63
2022-12-12T08:18:10.084Z,8.20
2022-12-12T08:20:40.081Z,8.32
2022-12-12T08:23:07.463Z,7.63
2022-12-12T08:25:36.194Z,7.47
2022-12-12T08:28:03.118Z,7.95
2022-12-12T08:30:29.849Z,7.25
2022-12-12T08:32:56.617Z,6.65
2022-12-12T08:35:23.706Z,6.55
2022-12-12T08:37:50.469Z,6.20
2022-12-12T08:40:17.209Z,6.05
2022-12-12T08:42:43.910Z,5.57
2022-12-12T08:45:11.143Z,6.30
2022-12-12T08:47:38.036Z,5.70
2022-12-12T08:50:06.627Z,5.70
2022-12-12T08:52:33.364Z,5.35
2022-12-12T08:55:00.022Z,4.95
2022-12-12T08:57:26.844Z,5.40
2022-12-12T08:59:53.495Z,5.60
2022-12-12T09:02:20.270Z,5.35
2022-12-12T09:04:47.163Z,5.00
2022-12-12T09:07:13.858Z,5.35
2022-12-12T09:09:40.513Z,4.72
2022-12-12T09:12:07.819Z,5.18
2022-12-12T09:14:34.504Z,5.13
2022-12-12T09:17:01.164Z,4.85
2022-12-12T09:19:31.081Z,5.47
2022-12-12T09:21:57.788Z,5.60
2022-12-12T09:24:25.495Z,5.97
2022-12-12T09:26:52.207Z,5.05
2022-12-12T09:29:18.927Z,5.60
2022-12-12T09:31:45.821Z,5.15
2022-12-12T09:34:12.506Z,5.35
2022-12-12T09:36:39.356Z,5.40
2022-12-12T09:39:06.075Z,5.38
2022-12-12T09:41:32.758Z,6.45
2022-12-12T09:44:10.883Z,7.68
2022-12-12T09:46:50.827Z,4.53
2022-12-12T09:49:20.354Z,5.05
2022-12-12T09:51:49.767Z,5.22
2022-12-12T09:54:20.569Z,4.28
2022-12-12T09:57:08.502Z,4.38
2022-12-12T09:59:41.801Z,4.53
2022-12-12T10:02:20.152Z,4.55
2022-12-12T10:05:02.918Z,4.45
2022-12-12T10:07:50.853Z,5.22
2022-12-12T10:10:44.178Z,4.68
2022-12-12T10:13:17.882Z,5.18
2022-12-12T10:15:55.975Z,4.50
2022-12-12T10:18:34.145Z,8.05
2022-12-12T10:21:04.487Z,5.63
2022-12-12T10:23:45.943Z,5.30
2022-12-12T10:26:18.493Z,4.68
2022-12-12T10:28:49.242Z,4.35
2022-12-12T10:31:34.583Z,4.20
2022-12-12T10:34:19.907Z,4.80
2022-12-12T10:37:18.251Z,4.65
2022-12-12T10:39:53.682Z,4.43
2022-12-12T10:42:48.218Z,4.47
2022-12-12T10:45:17.967Z,4.50
2022-12-12T10:47:45.433Z,4.70
2022-12-12T10:50:23.218Z,4.50
2022-12-12T10:52:49.899Z,4.70
2022-12-12T10:55:38.633Z,4.25
2022-12-12T10:58:06.169Z,4.28
2022-12-12T11:00:41.677Z,4.28
2022-12-12T11:03:28.002Z,4.72
2022-12-12T11:05:56.688Z,4.43
2022-12-12T11:08:34.955Z,4.32
2022-12-12T11:11:04.777Z,4.32
2022-12-12T11:13:38.083Z,4.03
2022-12-12T11:16:13.661Z,4.35
2022-12-12T11:18:40.856Z,12.38
2022-12-12T11:21:13.314Z,3.95
2022-12-12T11:23:48.535Z,4.60
2022-12-12T11:26:20.205Z,4.40
2022-12-12T11:28:53.411Z,5.05
2022-12-12T11:31:23.813Z,4.50
2022-12-12T11:33:54.796Z,5.65
2022-12-12T11:36:27.747Z,5.07
2022-12-12T11:38:56.717Z,4.53
2022-12-12T11:41:23.769Z,4.75
2022-12-12T11:43:50.469Z,5.22
2022-12-12T11:46:25.957Z,5.28
2022-12-12T11:48:52.649Z,4.72
2022-12-12T11:51:37.081Z,3.72
2022-12-12T11:56:44.858Z,4.30
2022-12-12T11:59:18.716Z,3.58
2022-12-12T12:02:11.511Z,3.25
2022-12-12T12:04:40.973Z,5.93
2022-12-12T12:07:19.746Z,3.42
2022-12-12T12:10:00.541Z,3.67
2022-12-12T12:13:03.864Z,3.72
2022-12-12T12:15:39.979Z,3.28
2022-12-12T12:18:31.331Z,3.72
2022-12-12T12:21:29.035Z,2.90
2022-12-12T12:24:15.736Z,3.17
2022-12-12T12:27:12.729Z,2.90
2022-12-12T12:30:17.173Z,3.75
2022-12-12T12:32:49.875Z,3.13
2022-12-12T12:35:25.375Z,3.50
2022-12-12T12:38:38.150Z,4.18
2022-12-12T12:41:22.990Z,3.80
2022-12-12T12:44:07.879Z,3.63
2022-12-12T12:46:43.564Z,4.07
2022-12-12T12:49:50.266Z,3.80
2022-12-12T12:52:37.762Z,3.80
2022-12-12T12:55:23.029Z,4.20
2022-12-12T12:57:51.544Z,4.20
2022-12-12T13:00:24.512Z,4.40
2022-12-12T13:02:57.750Z,4.90
2022-12-12T13:05:36.630Z,4.88
2022-12-12T13:08:21.554Z,4.80
2022-12-12T13:10:52.610Z,5.45
2022-12-12T13:13:29.729Z,4.90
2022-12-12T13:15:58.615Z,4.97
2022-12-12T13:18:33.312Z,5.82
2022-12-12T13:21:27.713Z,5.57
2022-12-12T13:24:09.408Z,6.32
2022-12-12T13:27:05.980Z,5.97
2022-12-12T13:29:57.972Z,6.53
2022-12-12T13:32:46.456Z,6.30
2022-12-12T13:35:18.113Z,5.97
2022-12-12T13:37:51.974Z,6.13
2022-12-12T13:40:42.712Z,5.88
2022-12-12T13:43:29.729Z,6.30
2022-12-12T13:45:56.593Z,5.38
2022-12-12T13:48:29.782Z,4.90
2022-12-12T13:51:44.821Z,4.95
2022-12-12T13:54:14.416Z,4.20
2022-12-12T13:56:44.337Z,9.20
2022-12-12T13:59:23.270Z,3.73
2022-12-12T14:01:52.296Z,3.77
2022-12-12T14:04:36.572Z,4.07
2022-12-12T14:07:07.340Z,4.40
2022-12-12T14:09:47.753Z,3.83
2022-12-12T14:12:30.745Z,3.50
2022-12-12T14:15:05.210Z,4.27
2022-12-12T14:17:41.726Z,4.18
2022-12-12T14:20:35.981Z,4.10
2022-12-12T14:23:05.681Z,3.87
2022-12-12T14:25:41.813Z,4.60
2022-12-12T14:28:27.344Z,3.88
2022-12-12T14:31:16.631Z,3.53
2022-12-12T14:33:52.709Z,3.70
2022-12-12T14:36:38.118Z,3.80
2022-12-12T14:39:31.004Z,4.10
2022-12-12T14:41:58.645Z,3.53
2022-12-12T14:44:37.818Z,3.53
2022-12-12T14:47:09.552Z,3.73
2022-12-12T14:49:36.388Z,3.63
2022-12-12T14:52:03.536Z,3.25
2022-12-12T14:54:31.531Z,3.77
2022-12-12T14:56:59.583Z,3.97
2022-12-12T14:59:34.016Z,4.17
2022-12-12T15:02:24.360Z,4.90
2022-12-12T15:04:58.057Z,4.00
2022-12-12T15:07:30.845Z,4.00
2022-12-12T15:09:57.908Z,4.00
2022-12-12T15:12:27.144Z,4.33
2022-12-12T15:14:56.671Z,3.77
2022-12-12T15:17:38.264Z,4.27
2022-12-12T15:20:14.689Z,4.20
2022-12-12T15:22:58.566Z,3.77
2022-12-12T15:25:30.073Z,4.78
2022-12-12T15:27:57.436Z,4.10
2022-12-12T15:30:33.494Z,4.73
2022-12-12T15:33:01.539Z,4.50
2022-12-12T15:35:28.364Z,5.07
2022-12-12T15:38:03.043Z,4.73
2022-12-12T15:40:34.291Z,4.47
2022-12-12T15:43:10.968Z,4.60
2022-12-12T15:45:41.481Z,5.30
2022-12-12T15:48:15.523Z,4.93
2022-12-12T15:53:29.245Z,4.80
2022-12-12T15:55:58.763Z,4.50
2022-12-12T15:58:43.665Z,4.57
2022-12-12T16:01:20.148Z,4.43
2022-12-12T16:04:06.643Z,5.43
2022-12-12T16:06:35.799Z,4.30
2022-12-12T16:09:08.544Z,4.77
2022-12-12T16:11:43.252Z,4.50
2022-12-12T16:14:41.157Z,4.63
2022-12-12T16:17:23.428Z,5.37
2022-12-12T16:19:57.798Z,4.20
2022-12-12T16:22:42.801Z,5.10
2022-12-12T16:25:28.177Z,4.57
2022-12-12T16:28:14.586Z,4.40
2022-12-12T16:30:43.510Z,5.13
2022-12-12T16:33:28.394Z,6.07
2022-12-12T16:35:56.006Z,6.83
2022-12-12T16:38:23.478Z,6.10
2022-12-12T16:40:53.073Z,6.30
2022-12-12T16:43:22.176Z,6.03
2022-12-12T16:45:50.983Z,6.13
2022-12-12T16:48:24.163Z,5.57
2022-12-12T16:50:52.974Z,4.47
2022-12-12T16:53:20.655Z,6.50
2022-12-12T16:55:50.528Z,5.83
2022-12-12T16:58:18.389Z,7.53
2022-12-12T17:00:45.419Z,8.17
2022-12-12T17:03:17.329Z,6.23
2022-12-12T17:05:45.704Z,7.20
2022-12-12T17:08:15.089Z,6.87
2022-12-12T17:10:43.225Z,5.60
2022-12-12T17:13:23.696Z,6.77
2022-12-12T17:15:54.830Z,6.53
2022-12-12T17:18:22.696Z,6.33
2022-12-12T17:20:50.034Z,6.83
2022-12-12T17:23:29.289Z,6.60
2022-12-12T17:26:03.152Z,6.73
2022-12-12T17:28:31.792Z,7.30
2022-12-12T17:30:58.770Z,6.67
2022-12-12T17:33:26.611Z,6.87
2022-12-12T17:36:02.029Z,6.93
2022-12-12T17:38:30.348Z,5.90
2022-12-12T17:40:57.937Z,6.63
2022-12-12T17:43:24.991Z,6.73
2022-12-12T17:46:14.365Z,6.77
2022-12-12T17:48:43.702Z,6.97
2022-12-12T17:51:12.702Z,6.80
2022-12-12T17:53:39.654Z,7.63
2022-12-12T17:56:13.054Z,7.17
2022-12-12T17:58:42.218Z,7.50
2022-12-12T18:01:13.357Z,7.10
2022-12-12T18:03:41.066Z,7.00
2022-12-12T18:06:08.290Z,7.43
2022-12-12T18:08:35.650Z,7.13
2022-12-12T18:11:06.398Z,7.07
2022-12-12T18:13:33.186Z,7.07
2022-12-12T18:15:59.916Z,7.73
2022-12-12T18:18:28.295Z,7.10
2022-12-12T18:20:54.983Z,7.53
2022-12-12T18:23:22.405Z,7.50
2022-12-12T18:25:49.072Z,6.80
2022-12-12T18:28:15.822Z,6.60
2022-12-12T18:30:42.562Z,7.20
2022-12-12T18:33:10.253Z,6.63
2022-12-12T18:35:36.879Z,6.37
2022-12-12T18:38:03.646Z,6.53
2022-12-12T18:40:30.398Z,7.00
2022-12-12T18:42:57.151Z,5.80
2022-12-12T18:45:24.115Z,6.00
2022-12-12T18:47:50.851Z,6.90
2022-12-12T18:50:17.553Z,6.83
2022-12-12T18:52:44.397Z,9.13
2022-12-12T18:55:11.050Z,7.83
2022-12-12T18:57:37.744Z,6.37
2022-12-12T19:00:08.407Z,6.97
2022-12-12T19:02:38.360Z,6.77
2022-12-12T19:05:05.928Z,6.50
2022-12-12T19:07:32.549Z,6.90
2022-12-12T19:09:59.313Z,6.37
2022-12-12T19:12:25.982Z,7.67
2022-12-12T19:15:15.796Z,7.37
2022-12-12T19:17:39.408Z,6.83
2022-12-12T19:20:06.510Z,7.60
2022-12-12T19:22:45.306Z,7.70
2022-12-12T19:25:14.095Z,6.60
2022-12-12T19:27:40.855Z,6.20
2022-12-12T19:30:08.253Z,5.80
2022-12-12T19:32:34.901Z,5.87
2022-12-12T19:35:01.816Z,5.20
2022-12-12T19:37:28.517Z,5.07
2022-12-12T19:39:55.329Z,6.03
2022-12-12T19:42:21.979Z,5.30
2022-12-12T19:44:48.739Z,5.33
2022-12-12T19:47:16.735Z,5.10
2022-12-12T19:49:43.441Z,5.37
2022-12-12T19:52:14.050Z,4.77
2022-12-12T19:54:41.254Z,4.53
2022-12-12T19:57:07.976Z,4.97
2022-12-12T19:59:34.639Z,4.37
2022-12-12T20:02:01.362Z,4.60
2022-12-12T20:04:30.178Z,4.80
2022-12-12T20:06:56.999Z,4.10
2022-12-12T20:09:29.121Z,5.17
2022-12-12T20:11:57.338Z,4.30
2022-12-12T20:14:27.278Z,4.13
2022-12-12T20:16:55.218Z,3.73
2022-12-12T20:19:23.771Z,4.50
2022-12-12T20:22:01.726Z,8.33
2022-12-12T20:24:30.140Z,5.37
2022-12-12T20:26:57.438Z,3.60
2022-12-12T20:29:24.249Z,4.00
2022-12-12T20:31:51.236Z,3.90
2022-12-12T20:34:21.679Z,3.47
2022-12-12T20:36:50.114Z,4.20
2022-12-12T20:39:19.618Z,4.10
2022-12-12T20:41:46.600Z,3.83
2022-12-12T20:44:14.117Z,3.57
2022-12-12T20:46:43.143Z,4.83
2022-12-12T20:49:14.176Z,3.57
2022-12-12T20:51:57.943Z,4.00
2022-12-12T20:54:27.722Z,3.67
2022-12-12T20:56:54.906Z,4.00
2022-12-12T20:59:21.987Z,3.77
2022-12-12T21:01:48.723Z,4.43
2022-12-12T21:04:15.875Z,3.80
2022-12-12T21:06:44.888Z,4.60
2022-12-12T21:09:15.092Z,4.40
2022-12-12T21:11:46.051Z,3.87
2022-12-12T21:14:12.771Z,4.20
2022-12-12T21:16:40.292Z,7.97
2022-12-12T21:19:11.460Z,5.87
2022-12-12T21:21:43.073Z,3.80
2022-12-12T21:24:12.362Z,4.17
2022-12-12T21:26:39.487Z,3.53
2022-12-12T21:29:06.823Z,4.17
2022-12-12T21:31:36.782Z,4.70
2022-12-12T21:34:04.647Z,4.73
2022-12-12T21:36:32.140Z,4.80
2022-12-12T21:39:00.112Z,4.97
2022-12-12T21:41:26.945Z,5.20
2022-12-12T21:43:55.351Z,5.30
2022-12-12T21:46:24.783Z,5.07
2022-12-12T21:49:12.447Z,5.13
2022-12-12T21:51:40.616Z,5.80
2022-12-12T21:54:09.702Z,6.47
2022-12-12T21:56:36.716Z,7.20
2022-12-12T21:59:03.844Z,5.43
2022-12-12T22:01:32.439Z,5.77
2022-12-12T22:03:59.880Z,5.37
2022-12-12T22:06:31.776Z,6.47
2022-12-12T22:09:00.349Z,6.40
2022-12-12T22:11:41.867Z,5.83
2022-12-12T22:14:17.564Z,6.53
2022-12-12T22:16:44.778Z,5.73
2022-12-12T22:19:13.502Z,6.20
2022-12-12T22:21:40.492Z,6.37
2022-12-12T22:24:07.659Z,6.07
2022-12-12T22:26:40.595Z,5.97
2022-12-12T22:29:10.839Z,6.30
2022-12-12T22:31:38.615Z,6.63
2022-12-12T22:34:09.924Z,6.83
2022-12-12T22:36:38.549Z,6.67
2022-12-12T22:39:07.590Z,6.57
2022-12-12T22:41:34.962Z,6.97
2022-12-12T22:44:03.914Z,6.57
2022-12-12T22:46:30.656Z,7.30
2022-12-12T22:48:59.699Z,7.37
2022-12-12T22:51:29.172Z,6.67
2022-12-12T22:54:00.794Z,8.00
2022-12-12T22:56:33.129Z,8.40
2022-12-12T22:59:00.319Z,6.93
2022-12-12T23:01:27.782Z,7.50
2022-12-12T23:03:55.662Z,7.73
2022-12-12T23:06:25.887Z,6.87
2022-12-12T23:08:55.311Z,6.13
2022-12-12T23:11:23.542Z,6.67
2022-12-12T23:13:50.778Z,6.60
2022-12-12T23:16:20.378Z,6.30
2022-12-12T23:18:48.314Z,6.20
2022-12-12T23:21:17.537Z,6.17
2022-12-12T23:23:45.325Z,6.47
2022-12-12T23:26:34.173Z,6.30
2022-12-12T23:29:00.906Z,6.63
2022-12-12T23:31:33.378Z,6.67
2022-12-12T23:34:03.575Z,7.10
2022-12-12T23:36:30.512Z,6.97
2022-12-12T23:39:01.104Z,7.03
2022-12-12T23:41:28.880Z,7.47
2022-12-12T23:43:56.040Z,7.23
2022-12-12T23:46:31.207Z,7.57
2022-12-12T23:48:57.872Z,7.27
2022-12-12T23:51:25.243Z,8.13
2022-12-12T23:53:52.384Z,6.93
2022-12-12T23:56:19.117Z,7.23
2022-12-12T23:58:45.834Z,7.30
